sensor_id;sensor_type;location;lat;lon;timestamp;P1;durP1;ratioP1;P2;durP2;ratioP2
11665;SDS011;5889;51.350;6.708;2022-08-21T00:01:19;8.63;;;3.65;;
11665;SDS011;5889;51.350;6.708;2022-08-21T00:03:49;11.57;;;4.25;;
11665;SDS011;5889;51.350;6.708;2022-08-21T00:06:16;9.95;;;4.50;;
11665;SDS011;5889;51.350;6.708;2022-08-21T00:08:43;8.75;;;3.78;;
11665;SDS011;5889;51.350;6.708;2022-08-21T00:11:10;6.07;;;3.70;;
11665;SDS011;5889;51.350;6.708;2022-08-21T00:13:37;8.13;;;3.72;;
11665;SDS011;5889;51.350;6.708;2022-08-21T00:16:04;10.25;;;4.32;;
11665;SDS011;5889;51.350;6.708;2022-08-21T00:18:31;9.90;;;4.63;;
11665;SDS011;5889;51.350;6.708;2022-08-21T00:21:00;6.70;;;3.95;;
11665;SDS011;5889;51.350;6.708;2022-08-21T00:23:27;12.43;;;4.15;;
11665;SDS011;5889;51.350;6.708;2022-08-21T00:25:54;10.27;;;4.50;;
11665;SDS011;5889;51.350;6.708;2022-08-21T00:28:21;8.63;;;4.32;;
11665;SDS011;5889;51.350;6.708;2022-08-21T00:30:47;9.95;;;4.38;;
11665;SDS011;5889;51.350;6.708;2022-08-21T00:33:14;6.57;;;4.10;;
11665;SDS011;5889;51.350;6.708;2022-08-21T00:35:42;8.48;;;4.25;;
11665;SDS011;5889;51.350;6.708;2022-08-21T00:38:10;7.32;;;4.28;;
11665;SDS011;5889;51.350;6.708;2022-08-21T00:40:40;9.27;;;4.53;;
11665;SDS011;5889;51.350;6.708;2022-08-21T00:43:09;7.50;;;4.47;;
11665;SDS011;5889;51.350;6.708;2022-08-21T00:45:38;7.82;;;4.65;;
11665;SDS011;5889;51.350;6.708;2022-08-21T00:48:05;6.82;;;4.43;;
11665;SDS011;5889;51.350;6.708;2022-08-21T00:50:40;13.43;;;5.05;;
11665;SDS011;5889;51.350;6.708;2022-08-21T00:53:11;9.25;;;4.78;;
11665;SDS011;5889;51.350;6.708;2022-08-21T00:55:39;6.53;;;4.75;;
11665;SDS011;5889;51.350;6.708;2022-08-21T00:58:07;10.02;;;5.18;;
11665;SDS011;5889;51.350;6.708;2022-08-21T01:00:37;8.13;;;4.70;;
11665;SDS011;5889;51.350;6.708;2022-08-21T01:03:08;11.45;;;5.03;;
11665;SDS011;5889;51.350;6.708;2022-08-21T01:05:38;7.65;;;5.22;;
11665;SDS011;5889;51.350;6.708;2022-08-21T01:08:06;9.98;;;5.72;;
11665;SDS011;5889;51.350;6.708;2022-08-21T01:10:36;8.80;;;5.30;;
11665;SDS011;5889;51.350;6.708;2022-08-21T01:13:04;9.50;;;5.30;;
11665;SDS011;5889;51.350;6.708;2022-08-21T01:15:33;9.57;;;5.60;;
11665;SDS011;5889;51.350;6.708;2022-08-21T01:18:02;8.80;;;5.35;;
11665;SDS011;5889;51.350;6.708;2022-08-21T01:20:29;11.52;;;5.85;;
11665;SDS011;5889;51.350;6.708;2022-08-21T01:22:58;8.35;;;5.45;;
11665;SDS011;5889;51.350;6.708;2022-08-21T01:25:25;12.75;;;5.82;;
11665;SDS011;5889;51.350;6.708;2022-08-21T01:27:52;11.18;;;6.30;;
11665;SDS011;5889;51.350;6.708;2022-08-21T01:30:20;10.82;;;5.68;;
11665;SDS011;5889;51.350;6.708;2022-08-21T01:32:51;11.35;;;5.65;;
11665;SDS011;5889;51.350;6.708;2022-08-21T01:35:20;9.40;;;5.80;;
11665;SDS011;5889;51.350;6.708;2022-08-21T01:37:47;13.02;;;6.05;;
11665;SDS011;5889;51.350;6.708;2022-08-21T01:40:16;9.63;;;5.93;;
11665;SDS011;5889;51.350;6.708;2022-08-21T01:42:44;8.60;;;5.78;;
11665;SDS011;5889;51.350;6.708;2022-08-21T01:45:12;12.25;;;6.65;;
11665;SDS011;5889;51.350;6.708;2022-08-21T01:47:39;9.15;;;6.75;;
11665;SDS011;5889;51.350;6.708;2022-08-21T01:50:08;12.93;;;6.35;;
11665;SDS011;5889;51.350;6.708;2022-08-21T01:52:38;10.40;;;6.40;;
11665;SDS011;5889;51.350;6.708;2022-08-21T01:55:05;14.30;;;6.50;;
11665;SDS011;5889;51.350;6.708;2022-08-21T01:57:36;10.07;;;7.10;;
11665;SDS011;5889;51.350;6.708;2022-08-21T02:00:04;10.13;;;6.68;;
11665;SDS011;5889;51.350;6.708;2022-08-21T02:02:31;8.25;;;6.63;;
11665;SDS011;5889;51.350;6.708;2022-08-21T02:04:58;10.10;;;6.50;;
11665;SDS011;5889;51.350;6.708;2022-08-21T02:07:25;14.60;;;7.00;;
11665;SDS011;5889;51.350;6.708;2022-08-21T02:09:52;10.05;;;6.60;;
11665;SDS011;5889;51.350;6.708;2022-08-21T02:12:19;12.20;;;6.70;;
11665;SDS011;5889;51.350;6.708;2022-08-21T02:14:47;11.25;;;6.70;;
11665;SDS011;5889;51.350;6.708;2022-08-21T02:17:14;10.95;;;7.15;;
11665;SDS011;5889;51.350;6.708;2022-08-21T02:19:41;11.45;;;6.88;;
11665;SDS011;5889;51.350;6.708;2022-08-21T02:22:08;13.88;;;6.88;;
11665;SDS011;5889;51.350;6.708;2022-08-21T02:24:35;9.35;;;6.72;;
11665;SDS011;5889;51.350;6.708;2022-08-21T02:27:02;8.73;;;6.68;;
11665;SDS011;5889;51.350;6.708;2022-08-21T02:29:30;10.25;;;6.75;;
11665;SDS011;5889;51.350;6.708;2022-08-21T02:31:58;10.85;;;6.53;;
11665;SDS011;5889;51.350;6.708;2022-08-21T02:34:25;9.18;;;6.68;;
11665;SDS011;5889;51.350;6.708;2022-08-21T02:36:52;14.60;;;7.18;;
11665;SDS011;5889;51.350;6.708;2022-08-21T02:39:19;9.80;;;7.18;;
11665;SDS011;5889;51.350;6.708;2022-08-21T02:41:46;13.02;;;8.30;;
11665;SDS011;5889;51.350;6.708;2022-08-21T02:44:12;10.05;;;7.68;;
11665;SDS011;5889;51.350;6.708;2022-08-21T02:46:39;15.15;;;8.45;;
11665;SDS011;5889;51.350;6.708;2022-08-21T02:49:08;9.75;;;6.70;;
11665;SDS011;5889;51.350;6.708;2022-08-21T02:51:34;9.55;;;7.55;;
11665;SDS011;5889;51.350;6.708;2022-08-21T02:54:01;12.52;;;7.32;;
11665;SDS011;5889;51.350;6.708;2022-08-21T02:56:28;13.80;;;8.10;;
11665;SDS011;5889;51.350;6.708;2022-08-21T02:58:55;11.27;;;8.00;;
11665;SDS011;5889;51.350;6.708;2022-08-21T03:01:22;12.83;;;7.40;;
11665;SDS011;5889;51.350;6.708;2022-08-21T03:03:49;10.73;;;7.20;;
11665;SDS011;5889;51.350;6.708;2022-08-21T03:06:18;11.60;;;7.28;;
11665;SDS011;5889;51.350;6.708;2022-08-21T03:08:46;12.37;;;7.40;;
11665;SDS011;5889;51.350;6.708;2022-08-21T03:11:14;15.73;;;7.07;;
11665;SDS011;5889;51.350;6.708;2022-08-21T03:13:41;8.60;;;6.33;;
11665;SDS011;5889;51.350;6.708;2022-08-21T03:16:08;11.70;;;8.30;;
11665;SDS011;5889;51.350;6.708;2022-08-21T03:18:35;14.23;;;8.77;;
11665;SDS011;5889;51.350;6.708;2022-08-21T03:21:02;13.20;;;9.60;;
11665;SDS011;5889;51.350;6.708;2022-08-21T03:23:31;15.37;;;9.50;;
11665;SDS011;5889;51.350;6.708;2022-08-21T03:25:58;15.27;;;9.33;;
11665;SDS011;5889;51.350;6.708;2022-08-21T03:28:25;14.30;;;9.33;;
11665;SDS011;5889;51.350;6.708;2022-08-21T03:30:53;10.63;;;8.43;;
11665;SDS011;5889;51.350;6.708;2022-08-21T03:33:20;12.47;;;9.13;;
11665;SDS011;5889;51.350;6.708;2022-08-21T03:35:56;14.90;;;8.50;;
11665;SDS011;5889;51.350;6.708;2022-08-21T03:38:26;15.03;;;8.50;;
11665;SDS011;5889;51.350;6.708;2022-08-21T03:40:55;11.90;;;8.20;;
11665;SDS011;5889;51.350;6.708;2022-08-21T03:43:22;13.97;;;9.77;;
11665;SDS011;5889;51.350;6.708;2022-08-21T03:45:49;11.27;;;8.97;;
11665;SDS011;5889;51.350;6.708;2022-08-21T03:48:16;14.87;;;8.97;;
11665;SDS011;5889;51.350;6.708;2022-08-21T03:50:43;14.43;;;8.50;;
11665;SDS011;5889;51.350;6.708;2022-08-21T03:53:13;12.27;;;8.82;;
11665;SDS011;5889;51.350;6.708;2022-08-21T03:55:40;18.27;;;8.67;;
11665;SDS011;5889;51.350;6.708;2022-08-21T03:58:09;13.97;;;8.27;;
11665;SDS011;5889;51.350;6.708;2022-08-21T04:00:36;13.87;;;8.30;;
11665;SDS011;5889;51.350;6.708;2022-08-21T04:03:03;13.23;;;8.43;;
11665;SDS011;5889;51.350;6.708;2022-08-21T04:05:31;11.50;;;8.13;;
11665;SDS011;5889;51.350;6.708;2022-08-21T04:08:00;11.80;;;8.57;;
11665;SDS011;5889;51.350;6.708;2022-08-21T04:10:30;14.13;;;8.53;;
11665;SDS011;5889;51.350;6.708;2022-08-21T04:12:58;15.10;;;9.37;;
11665;SDS011;5889;51.350;6.708;2022-08-21T04:15:26;14.77;;;9.37;;
11665;SDS011;5889;51.350;6.708;2022-08-21T04:17:53;15.50;;;9.80;;
11665;SDS011;5889;51.350;6.708;2022-08-21T04:20:21;14.17;;;9.30;;
11665;SDS011;5889;51.350;6.708;2022-08-21T04:22:49;18.83;;;9.47;;
11665;SDS011;5889;51.350;6.708;2022-08-21T04:25:18;11.13;;;8.93;;
11665;SDS011;5889;51.350;6.708;2022-08-21T04:27:47;14.20;;;9.77;;
11665;SDS011;5889;51.350;6.708;2022-08-21T04:30:14;14.40;;;9.40;;
11665;SDS011;5889;51.350;6.708;2022-08-21T04:32:43;15.00;;;9.07;;
11665;SDS011;5889;51.350;6.708;2022-08-21T04:35:11;16.50;;;9.30;;
11665;SDS011;5889;51.350;6.708;2022-08-21T04:37:39;15.90;;;9.60;;
11665;SDS011;5889;51.350;6.708;2022-08-21T04:40:06;15.60;;;9.53;;
11665;SDS011;5889;51.350;6.708;2022-08-21T04:42:40;14.83;;;9.27;;
11665;SDS011;5889;51.350;6.708;2022-08-21T04:45:09;16.90;;;9.67;;
11665;SDS011;5889;51.350;6.708;2022-08-21T04:47:40;16.53;;;8.73;;
11665;SDS011;5889;51.350;6.708;2022-08-21T04:50:09;15.93;;;9.57;;
11665;SDS011;5889;51.350;6.708;2022-08-21T04:52:35;15.73;;;9.63;;
11665;SDS011;5889;51.350;6.708;2022-08-21T04:55:03;14.87;;;9.00;;
11665;SDS011;5889;51.350;6.708;2022-08-21T04:57:30;14.87;;;9.53;;
11665;SDS011;5889;51.350;6.708;2022-08-21T04:59:57;18.27;;;9.37;;
11665;SDS011;5889;51.350;6.708;2022-08-21T05:02:24;19.30;;;9.87;;
11665;SDS011;5889;51.350;6.708;2022-08-21T05:04:52;14.53;;;9.37;;
11665;SDS011;5889;51.350;6.708;2022-08-21T05:07:23;15.73;;;9.90;;
11665;SDS011;5889;51.350;6.708;2022-08-21T05:09:52;17.20;;;9.27;;
11665;SDS011;5889;51.350;6.708;2022-08-21T05:12:20;14.17;;;10.07;;
11665;SDS011;5889;51.350;6.708;2022-08-21T05:14:48;14.27;;;10.60;;
11665;SDS011;5889;51.350;6.708;2022-08-21T05:17:15;17.40;;;10.63;;
11665;SDS011;5889;51.350;6.708;2022-08-21T05:19:41;12.90;;;9.93;;
11665;SDS011;5889;51.350;6.708;2022-08-21T05:22:08;15.47;;;9.90;;
11665;SDS011;5889;51.350;6.708;2022-08-21T05:24:37;13.77;;;9.93;;
11665;SDS011;5889;51.350;6.708;2022-08-21T05:27:04;16.83;;;9.87;;
11665;SDS011;5889;51.350;6.708;2022-08-21T05:29:32;14.43;;;9.17;;
11665;SDS011;5889;51.350;6.708;2022-08-21T05:31:59;18.27;;;10.17;;
11665;SDS011;5889;51.350;6.708;2022-08-21T05:34:26;17.03;;;9.73;;
11665;SDS011;5889;51.350;6.708;2022-08-21T05:36:53;15.47;;;9.83;;
11665;SDS011;5889;51.350;6.708;2022-08-21T05:39:20;16.77;;;9.50;;
11665;SDS011;5889;51.350;6.708;2022-08-21T05:41:48;14.93;;;8.00;;
11665;SDS011;5889;51.350;6.708;2022-08-21T05:44:15;14.33;;;7.80;;
11665;SDS011;5889;51.350;6.708;2022-08-21T05:46:42;13.70;;;7.67;;
11665;SDS011;5889;51.350;6.708;2022-08-21T05:49:10;18.40;;;8.60;;
11665;SDS011;5889;51.350;6.708;2022-08-21T05:51:38;20.57;;;6.97;;
11665;SDS011;5889;51.350;6.708;2022-08-21T05:54:06;15.27;;;8.07;;
11665;SDS011;5889;51.350;6.708;2022-08-21T05:56:33;13.97;;;7.70;;
11665;SDS011;5889;51.350;6.708;2022-08-21T05:59:01;14.33;;;8.60;;
11665;SDS011;5889;51.350;6.708;2022-08-21T06:01:28;12.63;;;7.57;;
11665;SDS011;5889;51.350;6.708;2022-08-21T06:03:55;17.97;;;8.47;;
11665;SDS011;5889;51.350;6.708;2022-08-21T06:06:22;13.53;;;7.27;;
11665;SDS011;5889;51.350;6.708;2022-08-21T06:08:49;18.93;;;8.83;;
11665;SDS011;5889;51.350;6.708;2022-08-21T06:11:17;13.93;;;8.20;;
11665;SDS011;5889;51.350;6.708;2022-08-21T06:13:44;13.10;;;8.10;;
11665;SDS011;5889;51.350;6.708;2022-08-21T06:16:13;14.97;;;8.80;;
11665;SDS011;5889;51.350;6.708;2022-08-21T06:18:42;17.63;;;8.67;;
11665;SDS011;5889;51.350;6.708;2022-08-21T06:21:10;14.60;;;7.43;;
11665;SDS011;5889;51.350;6.708;2022-08-21T06:23:38;17.10;;;6.83;;
11665;SDS011;5889;51.350;6.708;2022-08-21T06:26:05;12.60;;;7.27;;
11665;SDS011;5889;51.350;6.708;2022-08-21T06:28:34;10.20;;;5.90;;
11665;SDS011;5889;51.350;6.708;2022-08-21T06:31:09;11.37;;;6.93;;
11665;SDS011;5889;51.350;6.708;2022-08-21T06:33:38;14.73;;;8.20;;
11665;SDS011;5889;51.350;6.708;2022-08-21T06:36:05;18.33;;;7.50;;
11665;SDS011;5889;51.350;6.708;2022-08-21T06:38:39;11.47;;;6.67;;
11665;SDS011;5889;51.350;6.708;2022-08-21T06:41:06;12.30;;;6.07;;
11665;SDS011;5889;51.350;6.708;2022-08-21T06:43:33;13.87;;;6.80;;
11665;SDS011;5889;51.350;6.708;2022-08-21T06:46:00;12.60;;;6.03;;
11665;SDS011;5889;51.350;6.708;2022-08-21T06:48:27;17.40;;;6.67;;
11665;SDS011;5889;51.350;6.708;2022-08-21T06:50:56;14.67;;;6.47;;
11665;SDS011;5889;51.350;6.708;2022-08-21T06:53:23;12.13;;;5.77;;
11665;SDS011;5889;51.350;6.708;2022-08-21T06:55:49;13.27;;;6.50;;
11665;SDS011;5889;51.350;6.708;2022-08-21T06:58:16;14.17;;;5.77;;
11665;SDS011;5889;51.350;6.708;2022-08-21T07:00:45;12.75;;;4.90;;
11665;SDS011;5889;51.350;6.708;2022-08-21T07:03:17;10.05;;;4.50;;
11665;SDS011;5889;51.350;6.708;2022-08-21T07:05:49;16.73;;;4.90;;
11665;SDS011;5889;51.350;6.708;2022-08-21T07:08:17;11.52;;;4.72;;
11665;SDS011;5889;51.350;6.708;2022-08-21T07:10:45;9.17;;;3.63;;
11665;SDS011;5889;51.350;6.708;2022-08-21T07:13:12;9.18;;;4.10;;
11665;SDS011;5889;51.350;6.708;2022-08-21T07:15:40;6.88;;;4.00;;
11665;SDS011;5889;51.350;6.708;2022-08-21T07:18:07;8.02;;;3.88;;
11665;SDS011;5889;51.350;6.708;2022-08-21T07:20:34;7.80;;;3.47;;
11665;SDS011;5889;51.350;6.708;2022-08-21T07:23:02;8.38;;;3.63;;
11665;SDS011;5889;51.350;6.708;2022-08-21T07:25:32;8.82;;;3.92;;
11665;SDS011;5889;51.350;6.708;2022-08-21T07:27:59;7.28;;;3.42;;
11665;SDS011;5889;51.350;6.708;2022-08-21T07:30:27;8.65;;;3.53;;
11665;SDS011;5889;51.350;6.708;2022-08-21T07:32:54;7.28;;;3.33;;
11665;SDS011;5889;51.350;6.708;2022-08-21T07:35:22;7.88;;;3.05;;
11665;SDS011;5889;51.350;6.708;2022-08-21T07:37:49;7.32;;;3.20;;
11665;SDS011;5889;51.350;6.708;2022-08-21T07:40:16;7.25;;;2.97;;
11665;SDS011;5889;51.350;6.708;2022-08-21T07:42:46;9.10;;;3.13;;
11665;SDS011;5889;51.350;6.708;2022-08-21T07:45:15;5.65;;;2.50;;
11665;SDS011;5889;51.350;6.708;2022-08-21T07:47:42;5.18;;;2.42;;
11665;SDS011;5889;51.350;6.708;2022-08-21T07:50:09;6.43;;;1.80;;
11665;SDS011;5889;51.350;6.708;2022-08-21T07:52:37;3.35;;;1.63;;
11665;SDS011;5889;51.350;6.708;2022-08-21T07:55:05;4.20;;;1.63;;
11665;SDS011;5889;51.350;6.708;2022-08-21T07:57:33;6.07;;;1.70;;
11665;SDS011;5889;51.350;6.708;2022-08-21T08:00:01;5.70;;;1.70;;
11665;SDS011;5889;51.350;6.708;2022-08-21T08:02:29;6.93;;;2.15;;
11665;SDS011;5889;51.350;6.708;2022-08-21T08:04:58;5.47;;;1.40;;
11665;SDS011;5889;51.350;6.708;2022-08-21T08:07:26;5.68;;;1.88;;
11665;SDS011;5889;51.350;6.708;2022-08-21T08:09:53;4.43;;;2.30;;
11665;SDS011;5889;51.350;6.708;2022-08-21T08:12:20;7.05;;;1.75;;
11665;SDS011;5889;51.350;6.708;2022-08-21T08:14:48;14.15;;;1.92;;
11665;SDS011;5889;51.350;6.708;2022-08-21T08:17:16;8.90;;;1.70;;
11665;SDS011;5889;51.350;6.708;2022-08-21T08:19:47;8.85;;;1.90;;
11665;SDS011;5889;51.350;6.708;2022-08-21T08:22:14;5.22;;;1.75;;
11665;SDS011;5889;51.350;6.708;2022-08-21T08:24:44;5.22;;;2.25;;
11665;SDS011;5889;51.350;6.708;2022-08-21T08:27:11;5.80;;;1.70;;
11665;SDS011;5889;51.350;6.708;2022-08-21T08:29:38;4.63;;;1.70;;
11665;SDS011;5889;51.350;6.708;2022-08-21T08:32:05;5.20;;;1.65;;
11665;SDS011;5889;51.350;6.708;2022-08-21T08:34:34;8.32;;;1.70;;
11665;SDS011;5889;51.350;6.708;2022-08-21T08:37:02;7.28;;;1.60;;
11665;SDS011;5889;51.350;6.708;2022-08-21T08:39:29;6.63;;;1.65;;
11665;SDS011;5889;51.350;6.708;2022-08-21T08:41:58;5.68;;;1.80;;
11665;SDS011;5889;51.350;6.708;2022-08-21T08:44:29;4.00;;;1.52;;
11665;SDS011;5889;51.350;6.708;2022-08-21T08:46:56;3.90;;;1.58;;
11665;SDS011;5889;51.350;6.708;2022-08-21T08:49:27;3.95;;;1.58;;
11665;SDS011;5889;51.350;6.708;2022-08-21T08:51:59;4.57;;;1.67;;
11665;SDS011;5889;51.350;6.708;2022-08-21T08:54:29;7.75;;;1.83;;
11665;SDS011;5889;51.350;6.708;2022-08-21T08:56:59;4.45;;;1.58;;
11665;SDS011;5889;51.350;6.708;2022-08-21T08:59:30;4.70;;;1.48;;
11665;SDS011;5889;51.350;6.708;2022-08-21T09:02:02;4.70;;;1.80;;
11665;SDS011;5889;51.350;6.708;2022-08-21T09:04:30;2.38;;;1.35;;
11665;SDS011;5889;51.350;6.708;2022-08-21T09:07:01;3.95;;;1.60;;
11665;SDS011;5889;51.350;6.708;2022-08-21T09:09:41;4.65;;;1.30;;
11665;SDS011;5889;51.350;6.708;2022-08-21T09:12:29;3.88;;;1.60;;
11665;SDS011;5889;51.350;6.708;2022-08-21T09:15:06;6.32;;;1.42;;
11665;SDS011;5889;51.350;6.708;2022-08-21T09:17:48;2.28;;;1.20;;
11665;SDS011;5889;51.350;6.708;2022-08-21T09:20:29;3.95;;;1.42;;
11665;SDS011;5889;51.350;6.708;2022-08-21T09:23:07;4.25;;;1.15;;
11665;SDS011;5889;51.350;6.708;2022-08-21T09:25:42;4.43;;;1.45;;
11665;SDS011;5889;51.350;6.708;2022-08-21T09:28:19;3.45;;;1.33;;
11665;SDS011;5889;51.350;6.708;2022-08-21T09:30:46;5.30;;;1.30;;
11665;SDS011;5889;51.350;6.708;2022-08-21T09:33:13;5.10;;;1.55;;
11665;SDS011;5889;51.350;6.708;2022-08-21T09:35:50;3.47;;;1.42;;
11665;SDS011;5889;51.350;6.708;2022-08-21T09:38:26;8.10;;;1.58;;
11665;SDS011;5889;51.350;6.708;2022-08-21T09:40:57;2.13;;;0.90;;
11665;SDS011;5889;51.350;6.708;2022-08-21T09:43:27;2.88;;;1.25;;
11665;SDS011;5889;51.350;6.708;2022-08-21T09:46:02;4.22;;;1.08;;
11665;SDS011;5889;51.350;6.708;2022-08-21T09:48:38;3.92;;;1.08;;
11665;SDS011;5889;51.350;6.708;2022-08-21T09:51:11;4.25;;;1.40;;
11665;SDS011;5889;51.350;6.708;2022-08-21T09:53:44;4.25;;;1.25;;
11665;SDS011;5889;51.350;6.708;2022-08-21T09:56:18;4.10;;;1.30;;
11665;SDS011;5889;51.350;6.708;2022-08-21T09:59:16;5.57;;;1.70;;
11665;SDS011;5889;51.350;6.708;2022-08-21T10:01:51;5.13;;;1.30;;
11665;SDS011;5889;51.350;6.708;2022-08-21T10:04:20;2.55;;;1.10;;
11665;SDS011;5889;51.350;6.708;2022-08-21T10:06:49;3.13;;;1.30;;
11665;SDS011;5889;51.350;6.708;2022-08-21T10:09:18;2.63;;;0.98;;
11665;SDS011;5889;51.350;6.708;2022-08-21T10:11:49;1.60;;;1.10;;
11665;SDS011;5889;51.350;6.708;2022-08-21T10:14:28;3.20;;;1.27;;
11665;SDS011;5889;51.350;6.708;2022-08-21T10:17:05;5.80;;;1.30;;
11665;SDS011;5889;51.350;6.708;2022-08-21T10:19:38;3.58;;;1.27;;
11665;SDS011;5889;51.350;6.708;2022-08-21T10:22:15;5.25;;;1.40;;
11665;SDS011;5889;51.350;6.708;2022-08-21T10:24:57;3.97;;;1.30;;
11665;SDS011;5889;51.350;6.708;2022-08-21T10:27:33;3.50;;;1.30;;
11665;SDS011;5889;51.350;6.708;2022-08-21T10:30:06;6.00;;;1.42;;
11665;SDS011;5889;51.350;6.708;2022-08-21T10:32:42;4.57;;;1.42;;
11665;SDS011;5889;51.350;6.708;2022-08-21T10:35:22;2.92;;;1.08;;
11665;SDS011;5889;51.350;6.708;2022-08-21T10:38:05;3.20;;;1.27;;
11665;SDS011;5889;51.350;6.708;2022-08-21T10:41:02;3.30;;;1.42;;
11665;SDS011;5889;51.350;6.708;2022-08-21T10:43:37;4.85;;;1.40;;
11665;SDS011;5889;51.350;6.708;2022-08-21T10:46:12;4.53;;;1.52;;
11665;SDS011;5889;51.350;6.708;2022-08-21T10:48:48;2.55;;;1.10;;
11665;SDS011;5889;51.350;6.708;2022-08-21T10:51:21;3.75;;;1.38;;
11665;SDS011;5889;51.350;6.708;2022-08-21T10:53:55;3.08;;;1.10;;
11665;SDS011;5889;51.350;6.708;2022-08-21T10:56:31;5.07;;;1.48;;
11665;SDS011;5889;51.350;6.708;2022-08-21T10:59:15;6.63;;;1.52;;
11665;SDS011;5889;51.350;6.708;2022-08-21T11:01:52;3.25;;;1.15;;
11665;SDS011;5889;51.350;6.708;2022-08-21T11:04:24;2.83;;;1.20;;
11665;SDS011;5889;51.350;6.708;2022-08-21T11:06:58;1.75;;;1.00;;
11665;SDS011;5889;51.350;6.708;2022-08-21T11:09:29;2.40;;;1.35;;
11665;SDS011;5889;51.350;6.708;2022-08-21T11:11:58;4.03;;;1.50;;
11665;SDS011;5889;51.350;6.708;2022-08-21T11:14:34;2.47;;;0.90;;
11665;SDS011;5889;51.350;6.708;2022-08-21T11:17:07;2.40;;;1.20;;
11665;SDS011;5889;51.350;6.708;2022-08-21T11:19:38;4.35;;;1.17;;
11665;SDS011;5889;51.350;6.708;2022-08-21T11:22:11;3.08;;;1.05;;
11665;SDS011;5889;51.350;6.708;2022-08-21T11:24:47;3.95;;;1.40;;
11665;SDS011;5889;51.350;6.708;2022-08-21T11:27:36;2.80;;;1.00;;
11665;SDS011;5889;51.350;6.708;2022-08-21T11:30:07;5.75;;;1.10;;
11665;SDS011;5889;51.350;6.708;2022-08-21T11:32:47;4.57;;;1.42;;
11665;SDS011;5889;51.350;6.708;2022-08-21T11:35:34;5.20;;;1.40;;
11665;SDS011;5889;51.350;6.708;2022-08-21T11:38:11;3.22;;;1.10;;
11665;SDS011;5889;51.350;6.708;2022-08-21T11:40:54;1.98;;;1.10;;
11665;SDS011;5889;51.350;6.708;2022-08-21T11:43:37;3.70;;;1.00;;
11665;SDS011;5889;51.350;6.708;2022-08-21T11:46:11;2.25;;;1.00;;
11665;SDS011;5889;51.350;6.708;2022-08-21T11:48:48;2.42;;;0.98;;
11665;SDS011;5889;51.350;6.708;2022-08-21T11:51:26;2.25;;;0.93;;
11665;SDS011;5889;51.350;6.708;2022-08-21T11:54:00;2.65;;;1.10;;
11665;SDS011;5889;51.350;6.708;2022-08-21T11:56:32;3.03;;;1.00;;
11665;SDS011;5889;51.350;6.708;2022-08-21T11:59:06;3.75;;;1.20;;
11665;SDS011;5889;51.350;6.708;2022-08-21T12:01:38;4.15;;;1.23;;
11665;SDS011;5889;51.350;6.708;2022-08-21T12:04:10;3.75;;;1.15;;
11665;SDS011;5889;51.350;6.708;2022-08-21T12:06:45;3.40;;;1.20;;
11665;SDS011;5889;51.350;6.708;2022-08-21T12:09:28;3.72;;;1.15;;
11665;SDS011;5889;51.350;6.708;2022-08-21T12:12:00;2.92;;;1.42;;
11665;SDS011;5889;51.350;6.708;2022-08-21T12:14:36;3.70;;;1.10;;
11665;SDS011;5889;51.350;6.708;2022-08-21T12:17:06;4.65;;;1.30;;
11665;SDS011;5889;51.350;6.708;2022-08-21T12:19:34;6.38;;;1.35;;
11665;SDS011;5889;51.350;6.708;2022-08-21T12:22:08;3.95;;;1.17;;
11665;SDS011;5889;51.350;6.708;2022-08-21T12:24:38;3.35;;;1.15;;
11665;SDS011;5889;51.350;6.708;2022-08-21T12:27:14;1.98;;;1.10;;
11665;SDS011;5889;51.350;6.708;2022-08-21T12:29:52;2.53;;;0.90;;
11665;SDS011;5889;51.350;6.708;2022-08-21T12:32:24;4.00;;;1.27;;
11665;SDS011;5889;51.350;6.708;2022-08-21T12:34:53;2.83;;;1.00;;
11665;SDS011;5889;51.350;6.708;2022-08-21T12:37:29;2.85;;;1.15;;
11665;SDS011;5889;51.350;6.708;2022-08-21T12:40:04;3.40;;;1.55;;
11665;SDS011;5889;51.350;6.708;2022-08-21T12:42:41;2.90;;;1.10;;
11665;SDS011;5889;51.350;6.708;2022-08-21T12:45:14;3.70;;;0.90;;
11665;SDS011;5889;51.350;6.708;2022-08-21T12:47:47;2.05;;;0.88;;
11665;SDS011;5889;51.350;6.708;2022-08-21T12:50:19;2.20;;;0.98;;
11665;SDS011;5889;51.350;6.708;2022-08-21T12:52:51;3.40;;;1.15;;
11665;SDS011;5889;51.350;6.708;2022-08-21T12:55:28;6.22;;;1.50;;
11665;SDS011;5889;51.350;6.708;2022-08-21T12:57:57;6.03;;;1.42;;
11665;SDS011;5889;51.350;6.708;2022-08-21T13:00:28;3.25;;;1.10;;
11665;SDS011;5889;51.350;6.708;2022-08-21T13:02:55;2.90;;;1.13;;
11665;SDS011;5889;51.350;6.708;2022-08-21T13:05:27;5.30;;;1.30;;
11665;SDS011;5889;51.350;6.708;2022-08-21T13:07:57;2.45;;;1.10;;
11665;SDS011;5889;51.350;6.708;2022-08-21T13:10:25;3.85;;;1.08;;
11665;SDS011;5889;51.350;6.708;2022-08-21T13:12:55;2.95;;;1.08;;
11665;SDS011;5889;51.350;6.708;2022-08-21T13:15:33;2.35;;;1.00;;
11665;SDS011;5889;51.350;6.708;2022-08-21T13:18:04;3.03;;;1.15;;
11665;SDS011;5889;51.350;6.708;2022-08-21T13:20:32;3.67;;;1.45;;
11665;SDS011;5889;51.350;6.708;2022-08-21T13:23:03;1.90;;;1.20;;
11665;SDS011;5889;51.350;6.708;2022-08-21T13:25:41;2.33;;;1.00;;
11665;SDS011;5889;51.350;6.708;2022-08-21T13:28:09;3.22;;;1.05;;
11665;SDS011;5889;51.350;6.708;2022-08-21T13:30:41;2.72;;;1.00;;
11665;SDS011;5889;51.350;6.708;2022-08-21T13:33:10;2.20;;;1.17;;
11665;SDS011;5889;51.350;6.708;2022-08-21T13:35:48;3.53;;;1.20;;
11665;SDS011;5889;51.350;6.708;2022-08-21T13:38:17;5.03;;;1.17;;
11665;SDS011;5889;51.350;6.708;2022-08-21T13:40:49;4.65;;;1.30;;
11665;SDS011;5889;51.350;6.708;2022-08-21T13:43:21;3.30;;;0.90;;
11665;SDS011;5889;51.350;6.708;2022-08-21T13:45:55;4.40;;;1.23;;
11665;SDS011;5889;51.350;6.708;2022-08-21T13:48:24;2.33;;;0.93;;
11665;SDS011;5889;51.350;6.708;2022-08-21T13:50:56;3.20;;;1.42;;
11665;SDS011;5889;51.350;6.708;2022-08-21T13:53:27;4.43;;;1.20;;
11665;SDS011;5889;51.350;6.708;2022-08-21T13:55:56;2.85;;;1.25;;
11665;SDS011;5889;51.350;6.708;2022-08-21T13:58:25;3.55;;;1.13;;
11665;SDS011;5889;51.350;6.708;2022-08-21T14:00:53;2.70;;;1.10;;
11665;SDS011;5889;51.350;6.708;2022-08-21T14:03:26;3.30;;;1.10;;
11665;SDS011;5889;51.350;6.708;2022-08-21T14:05:57;3.30;;;1.33;;
11665;SDS011;5889;51.350;6.708;2022-08-21T14:08:25;3.45;;;1.20;;
11665;SDS011;5889;51.350;6.708;2022-08-21T14:10:57;3.90;;;1.13;;
11665;SDS011;5889;51.350;6.708;2022-08-21T14:13:29;3.25;;;1.05;;
11665;SDS011;5889;51.350;6.708;2022-08-21T14:16:14;1.85;;;0.80;;
11665;SDS011;5889;51.350;6.708;2022-08-21T14:18:47;1.50;;;0.90;;
11665;SDS011;5889;51.350;6.708;2022-08-21T14:21:24;2.20;;;1.10;;
11665;SDS011;5889;51.350;6.708;2022-08-21T14:24:02;3.38;;;1.27;;
11665;SDS011;5889;51.350;6.708;2022-08-21T14:26:36;4.47;;;1.30;;
11665;SDS011;5889;51.350;6.708;2022-08-21T14:29:09;4.68;;;1.48;;
11665;SDS011;5889;51.350;6.708;2022-08-21T14:31:40;4.50;;;1.60;;
11665;SDS011;5889;51.350;6.708;2022-08-21T14:34:07;1.85;;;0.98;;
11665;SDS011;5889;51.350;6.708;2022-08-21T14:36:38;5.10;;;1.17;;
11665;SDS011;5889;51.350;6.708;2022-08-21T14:39:05;4.35;;;1.40;;
11665;SDS011;5889;51.350;6.708;2022-08-21T14:41:32;2.88;;;1.10;;
11665;SDS011;5889;51.350;6.708;2022-08-21T14:43:58;4.50;;;0.88;;
11665;SDS011;5889;51.350;6.708;2022-08-21T14:46:26;3.53;;;1.13;;
11665;SDS011;5889;51.350;6.708;2022-08-21T14:48:56;2.60;;;0.90;;
11665;SDS011;5889;51.350;6.708;2022-08-21T14:51:23;2.00;;;0.90;;
11665;SDS011;5889;51.350;6.708;2022-08-21T14:53:50;2.88;;;1.38;;
11665;SDS011;5889;51.350;6.708;2022-08-21T14:56:17;2.90;;;1.10;;
11665;SDS011;5889;51.350;6.708;2022-08-21T14:58:45;4.72;;;1.10;;
11665;SDS011;5889;51.350;6.708;2022-08-21T15:01:15;4.82;;;1.20;;
11665;SDS011;5889;51.350;6.708;2022-08-21T15:03:43;5.80;;;1.35;;
11665;SDS011;5889;51.350;6.708;2022-08-21T15:06:12;1.83;;;1.00;;
11665;SDS011;5889;51.350;6.708;2022-08-21T15:08:39;5.07;;;1.30;;
11665;SDS011;5889;51.350;6.708;2022-08-21T15:11:06;3.15;;;1.40;;
11665;SDS011;5889;51.350;6.708;2022-08-21T15:13:35;3.47;;;1.52;;